Peotone Weather
Station Historical Data
Daily Summary for May 19, 2017 Units:  Both    English   Metric
« Previous Day
Next Day »
Daily Weekly Monthly Yearly Custom
  High: Low: Average:
Temperature: 51.7 °F /  10.9 °C 44.4 °F /  6.9 °C 47.8 °F /  8.8 °C
Dew Point: 49.1 °F /  9.5 °C 39.3 °F /  4.1 °C 44.1 °F /  6.7 °C
Humidity: 95% 74% 87%
Wind Speed: 26.4mph /  42.5km/h - 8.2mph /  13.2km/h
Wind Gust: 29.9mph /  48.1km/h - -
Wind- - ENE
Pressure: 30.15 in /  1020.9 hPa 29.97 in /  1014.8 hPa -
Precipitation: 0.19 in /  4.83 mm    
Historical Graphs
 
 
Tabular Data for May 19, 2017
Time Temperature Dew Point Pressure Wind Wind Speed Wind Gust Humidity Rainfall Rate (Hourly) solar Conditions
00:00 51.7 °F /  10.9 °C 44.7 °F /  7.1 °C 30.00in /  1015.8hPa East 8.1mph /  13km/h 19.5mph /  31.4km/h 77% 0.00in /  0mm 0.00 W/m2
00:05 51.6 °F /  10.9 °C 44.6 °F /  7 °C 30.00in /  1015.8hPa ENE 9.2mph /  14.8km/h 10.3mph /  16.6km/h 77% 0.00in /  0mm 0.00 W/m2
00:10 51.6 °F /  10.9 °C 44.6 °F /  7 °C 30.00in /  1015.8hPa NE 8.1mph /  13km/h 14.9mph /  24km/h 77% 0.00in /  0mm 0.00 W/m2
00:15 51.5 °F /  10.8 °C 44.5 °F /  6.9 °C 30.00in /  1015.8hPa ENE 3.4mph /  5.5km/h 14.9mph /  24km/h 77% 0.00in /  0mm 0.00 W/m2
00:20 51.4 °F /  10.8 °C 44.4 °F /  6.9 °C 30.00in /  1015.8hPa NE 14.9mph /  24km/h 17.2mph /  27.7km/h 77% 0.00in /  0mm 0.00 W/m2
00:25 51.4 °F /  10.8 °C 44.4 °F /  6.9 °C 30.00in /  1015.8hPa ENE 9.2mph /  14.8km/h 19.5mph /  31.4km/h 77% 0.00in /  0mm 0.00 W/m2
00:27 51.4 °F /  10.8 °C 44.4 °F /  6.9 °C 30.00in /  1015.8hPa North 10.3mph /  16.6km/h 11.5mph /  18.5km/h 77% 0.00in /  0mm 0.00 W/m2
00:30 51.3 °F /  10.7 °C 44.3 °F /  6.8 °C 30.00in /  1015.8hPa NE 6.9mph /  11.1km/h 18.4mph /  29.6km/h 77% 0.00in /  0mm 0.00 W/m2
00:32 51.3 °F /  10.7 °C 44.3 °F /  6.8 °C 30.00in /  1015.8hPa ENE 11.5mph /  18.5km/h 14.9mph /  24km/h 77% 0.00in /  0mm 0.00 W/m2
00:35 51.2 °F /  10.7 °C 44.2 °F /  6.8 °C 30.00in /  1015.8hPa North 6.9mph /  11.1km/h 14.9mph /  24km/h 77% 0.00in /  0mm 0.00 W/m2
00:37 51.2 °F /  10.7 °C 44.2 °F /  6.8 °C 30.00in /  1015.8hPa ENE 4.6mph /  7.4km/h 14.9mph /  24km/h 77% 0.00in /  0mm 0.00 W/m2
00:40 51.1 °F /  10.6 °C 44.2 °F /  6.8 °C 30.00in /  1015.8hPa NE 8.1mph /  13km/h 16.1mph /  25.9km/h 77% 0.00in /  0mm 0.00 W/m2
00:43 51.1 °F /  10.6 °C 44.2 °F /  6.8 °C 30.00in /  1015.8hPa North 8.1mph /  13km/h 17.2mph /  27.7km/h 77% 0.00in /  0mm 0.00 W/m2
00:45 51.0 °F /  10.6 °C 44.4 °F /  6.9 °C 30.01in /  1016.1hPa NE 4.6mph /  7.4km/h 21.9mph /  35.2km/h 78% 0.00in /  0mm 0.00 W/m2
00:48 51.0 °F /  10.6 °C 44.4 °F /  6.9 °C 30.01in /  1016.1hPa NNE 9.2mph /  14.8km/h 14.9mph /  24km/h 78% 0.00in /  0mm 0.00 W/m2
00:50 51.0 °F /  10.6 °C 44.4 °F /  6.9 °C 30.01in /  1016.1hPa NE 11.5mph /  18.5km/h 14.9mph /  24km/h 78% 0.00in /  0mm 0.00 W/m2
00:53 50.9 °F /  10.5 °C 44.3 °F /  6.8 °C 30.01in /  1016.1hPa ENE 8.1mph /  13km/h 20.7mph /  33.3km/h 78% 0.00in /  0mm 0.00 W/m2
00:55 50.9 °F /  10.5 °C 44.3 °F /  6.8 °C 30.01in /  1016.1hPa ENE 5.8mph /  9.3km/h 20.7mph /  33.3km/h 78% 0.00in /  0mm 0.00 W/m2
00:58 50.9 °F /  10.5 °C 44.3 °F /  6.8 °C 30.01in /  1016.1hPa NE 3.4mph /  5.5km/h 17.2mph /  27.7km/h 78% 0.00in /  0mm 0.00 W/m2
01:00 50.8 °F /  10.4 °C 44.2 °F /  6.8 °C 30.01in /  1016.1hPa North 6.9mph /  11.1km/h 17.2mph /  27.7km/h 78% 0.00in /  0mm 0.00 W/m2
01:03 50.7 °F /  10.4 °C 44.1 °F /  6.7 °C 30.01in /  1016.1hPa NNE 2.3mph /  3.7km/h 10.3mph /  16.6km/h 78% 0.00in /  0mm 0.00 W/m2
01:05 50.6 °F /  10.3 °C 44.3 °F /  6.8 °C 30.01in /  1016.1hPa NE 8.1mph /  13km/h 13.8mph /  22.2km/h 79% 0.00in /  0mm 0.00 W/m2
01:08 50.6 °F /  10.3 °C 44.3 °F /  6.8 °C 30.01in /  1016.1hPa NNE 11.5mph /  18.5km/h 13.8mph /  22.2km/h 79% 0.00in /  0mm 0.00 W/m2
01:10 50.5 °F /  10.3 °C 44.2 °F /  6.8 °C 30.00in /  1015.8hPa North 10.4mph /  16.7km/h 18.4mph /  29.6km/h 79% 0.00in /  0mm 0.00 W/m2
01:13 50.5 °F /  10.3 °C 44.2 °F /  6.8 °C 30.00in /  1015.8hPa NNE 3.4mph /  5.5km/h 12.6mph /  20.3km/h 79% 0.00in /  0mm 0.00 W/m2
01:15 50.5 °F /  10.3 °C 44.2 °F /  6.8 °C 30.00in /  1015.8hPa NNE 6.9mph /  11.1km/h 18.4mph /  29.6km/h 79% 0.00in /  0mm 0.00 W/m2
01:18 50.5 °F /  10.3 °C 44.2 °F /  6.8 °C 30.00in /  1015.8hPa ENE 3.4mph /  5.5km/h 12.6mph /  20.3km/h 79% 0.00in /  0mm 0.00 W/m2
01:20 50.4 °F /  10.2 °C 44.1 °F /  6.7 °C 30.01in /  1016.1hPa East 6.9mph /  11.1km/h 12.6mph /  20.3km/h 79% 0.00in /  0mm 0.00 W/m2
01:23 50.4 °F /  10.2 °C 44.1 °F /  6.7 °C 30.01in /  1016.1hPa NE 4.6mph /  7.4km/h 14.9mph /  24km/h 79% 0.00in /  0mm 0.00 W/m2
01:25 50.3 °F /  10.2 °C 44.0 °F /  6.7 °C 30.00in /  1015.8hPa NNE 6.9mph /  11.1km/h 14.9mph /  24km/h 79% 0.00in /  0mm 0.00 W/m2
01:28 50.2 °F /  10.1 °C 44.3 °F /  6.8 °C 30.00in /  1015.8hPa ENE 9.2mph /  14.8km/h 11.5mph /  18.5km/h 80% 0.00in /  0mm 0.00 W/m2
01:30 50.1 °F /  10.1 °C 44.2 °F /  6.8 °C 30.00in /  1015.8hPa North 13.8mph /  22.2km/h 18.4mph /  29.6km/h 80% 0.00in /  0mm 0.00 W/m2
01:33 50.0 °F /  10 °C 44.1 °F /  6.7 °C 30.01in /  1016.1hPa NNE 5.8mph /  9.3km/h 13.8mph /  22.2km/h 80% 0.00in /  0mm 0.00 W/m2
01:35 49.9 °F /  9.9 °C 44.0 °F /  6.7 °C 30.01in /  1016.1hPa ENE 13.8mph /  22.2km/h 13.8mph /  22.2km/h 80% 0.00in /  0mm 0.00 W/m2
01:38 49.8 °F /  9.9 °C 43.9 °F /  6.6 °C 30.01in /  1016.1hPa NE 5.8mph /  9.3km/h 13.8mph /  22.2km/h 80% 0.00in /  0mm 0.00 W/m2
01:40 49.7 °F /  9.8 °C 43.8 °F /  6.6 °C 30.01in /  1016.1hPa NNE 14.9mph /  24km/h 16.1mph /  25.9km/h 80% 0.00in /  0mm 0.00 W/m2
01:43 49.7 °F /  9.8 °C 43.8 °F /  6.6 °C 30.01in /  1016.1hPa NE 10.3mph /  16.6km/h 17.2mph /  27.7km/h 80% 0.00in /  0mm 0.00 W/m2
01:45 49.7 °F /  9.8 °C 43.5 °F /  6.4 °C 30.01in /  1016.1hPa North 12.6mph /  20.3km/h 17.2mph /  27.7km/h 79% 0.00in /  0mm 0.00 W/m2
01:49 49.6 °F /  9.8 °C 43.4 °F /  6.3 °C 30.02in /  1016.5hPa North 10.3mph /  16.6km/h 18.4mph /  29.6km/h 79% 0.00in /  0mm 0.00 W/m2
01:50 49.6 °F /  9.8 °C 43.4 °F /  6.3 °C 30.02in /  1016.5hPa NNE 11.5mph /  18.5km/h 20.7mph /  33.3km/h 79% 0.00in /  0mm 0.00 W/m2
01:54 49.5 °F /  9.7 °C 43.3 °F /  6.3 °C 30.03in /  1016.8hPa ENE 10.3mph /  16.6km/h 13.8mph /  22.2km/h 79% 0.00in /  0mm 0.00 W/m2
01:55 49.5 °F /  9.7 °C 43.3 °F /  6.3 °C 30.02in /  1016.5hPa NE 9.2mph /  14.8km/h 14.9mph /  24km/h 79% 0.00in /  0mm 0.00 W/m2
01:59 49.5 °F /  9.7 °C 43.3 °F /  6.3 °C 30.02in /  1016.5hPa North 17.2mph /  27.7km/h 17.2mph /  27.7km/h 79% 0.00in /  0mm 0.00 W/m2
02:00 49.4 °F /  9.7 °C 42.8 °F /  6 °C 30.02in /  1016.5hPa ENE 16.1mph /  25.9km/h 19.5mph /  31.4km/h 78% 0.00in /  0mm 0.00 W/m2
02:04 49.4 °F /  9.7 °C 42.8 °F /  6 °C 30.01in /  1016.1hPa North 8.1mph /  13km/h 19.5mph /  31.4km/h 78% 0.00in /  0mm 0.00 W/m2
02:05 49.3 °F /  9.6 °C 42.7 °F /  5.9 °C 30.02in /  1016.5hPa NE 8.1mph /  13km/h 19.5mph /  31.4km/h 78% 0.00in /  0mm 0.00 W/m2
02:09 49.2 °F /  9.6 °C 42.6 °F /  5.9 °C 30.02in /  1016.5hPa NE 11.5mph /  18.5km/h 13.8mph /  22.2km/h 78% 0.00in /  0mm 0.00 W/m2
02:10 49.2 °F /  9.6 °C 42.6 °F /  5.9 °C 30.02in /  1016.5hPa NE 14.9mph /  24km/h 14.9mph /  24km/h 78% 0.00in /  0mm 0.00 W/m2
02:14 49.1 °F /  9.5 °C 42.5 °F /  5.8 °C 30.02in /  1016.5hPa NE 9.2mph /  14.8km/h 16.1mph /  25.9km/h 78% 0.00in /  0mm 0.00 W/m2
02:15 49.1 °F /  9.5 °C 42.5 °F /  5.8 °C 30.01in /  1016.1hPa NNE 9.2mph /  14.8km/h 16.1mph /  25.9km/h 78% 0.00in /  0mm 0.00 W/m2
02:19 49.0 °F /  9.4 °C 42.8 °F /  6 °C 30.02in /  1016.5hPa NE 12.6mph /  20.3km/h 12.6mph /  20.3km/h 79% 0.00in /  0mm 0.00 W/m2
02:20 49.0 °F /  9.4 °C 42.8 °F /  6 °C 30.02in /  1016.5hPa NE 16.1mph /  25.9km/h 17.2mph /  27.7km/h 79% 0.00in /  0mm 0.00 W/m2
02:22 48.9 °F /  9.4 °C 42.3 °F /  5.7 °C 30.01in /  1016.1hPa NNE 8.1mph /  13km/h 21.9mph /  35.2km/h 78% 0.00in /  0mm 0.00 W/m2
02:25 48.8 °F /  9.3 °C 42.3 °F /  5.7 °C 30.02in /  1016.5hPa ENE 5.8mph /  9.3km/h 21.9mph /  35.2km/h 78% 0.00in /  0mm 0.00 W/m2
02:27 48.8 °F /  9.3 °C 41.9 °F /  5.5 °C 30.02in /  1016.5hPa North 18.4mph /  29.6km/h 23.0mph /  37km/h 77% 0.00in /  0mm 0.00 W/m2
02:30 48.5 °F /  9.2 °C 40.6 °F /  4.8 °C 30.03in /  1016.8hPa NE 3.5mph /  5.6km/h 23.0mph /  37km/h 74% 0.00in /  0mm 0.00 W/m2
02:32 48.5 °F /  9.2 °C 41.0 °F /  5 °C 30.03in /  1016.8hPa NNE 2.3mph /  3.7km/h 11.5mph /  18.5km/h 75% 0.00in /  0mm 0.00 W/m2
02:35 48.3 °F /  9.1 °C 40.8 °F /  4.9 °C 30.03in /  1016.8hPa NE 13.8mph /  22.2km/h 21.9mph /  35.2km/h 75% 0.00in /  0mm 0.00 W/m2
02:37 48.2 °F /  9 °C 40.3 °F /  4.6 °C 30.02in /  1016.5hPa NNE 4.6mph /  7.4km/h 18.4mph /  29.6km/h 74% 0.00in /  0mm 0.00 W/m2
02:40 48.1 °F /  8.9 °C 40.2 °F /  4.6 °C 30.02in /  1016.5hPa NNE 9.2mph /  14.8km/h 20.7mph /  33.3km/h 74% 0.00in /  0mm 0.00 W/m2
02:43 48.0 °F /  8.9 °C 40.5 °F /  4.7 °C 30.03in /  1016.8hPa NE 10.3mph /  16.6km/h 25.3mph /  40.7km/h 75% 0.00in /  0mm 0.00 W/m2
02:45 47.9 °F /  8.8 °C 40.0 °F /  4.4 °C 30.03in /  1016.8hPa ENE 10.4mph /  16.7km/h 25.3mph /  40.7km/h 74% 0.00in /  0mm 0.00 W/m2
02:48 47.9 °F /  8.8 °C 40.4 °F /  4.7 °C 30.02in /  1016.5hPa East 6.9mph /  11.1km/h 16.1mph /  25.9km/h 75% 0.00in /  0mm 0.00 W/m2
02:50 47.8 °F /  8.8 °C 40.3 °F /  4.6 °C 30.02in /  1016.5hPa NNE 17.2mph /  27.7km/h 17.2mph /  27.7km/h 75% 0.00in /  0mm 0.00 W/m2
02:53 47.8 °F /  8.8 °C 40.3 °F /  4.6 °C 30.02in /  1016.5hPa North 9.2mph /  14.8km/h 17.2mph /  27.7km/h 75% 0.00in /  0mm 0.00 W/m2
02:55 47.7 °F /  8.7 °C 40.2 °F /  4.6 °C 30.02in /  1016.5hPa ENE 13.8mph /  22.2km/h 23.0mph /  37km/h 75% 0.00in /  0mm 0.00 W/m2
02:58 47.6 °F /  8.7 °C 40.1 °F /  4.5 °C 30.01in /  1016.1hPa NE 10.3mph /  16.6km/h 16.1mph /  25.9km/h 75% 0.00in /  0mm 0.00 W/m2
03:06 47.4 °F /  8.6 °C 39.9 °F /  4.4 °C 30.00in /  1015.8hPa NE 10.3mph /  16.6km/h 10.3mph /  16.6km/h 75% 0.00in /  0mm 0.00 W/m2
03:11 47.2 °F /  8.4 °C 39.7 °F /  4.3 °C 30.00in /  1015.8hPa ENE 17.2mph /  27.7km/h 17.2mph /  27.7km/h 75% 0.00in /  0mm 0.00 W/m2
03:16 47.0 °F /  8.3 °C 39.8 °F /  4.3 °C 30.00in /  1015.8hPa NE 9.2mph /  14.8km/h 13.8mph /  22.2km/h 76% 0.00in /  0mm 0.00 W/m2
03:21 46.9 °F /  8.3 °C 40.1 °F /  4.5 °C 30.00in /  1015.8hPa NNE 9.2mph /  14.8km/h 9.2mph /  14.8km/h 77% 0.00in /  0mm 0.00 W/m2
03:26 46.9 °F /  8.3 °C 40.4 °F /  4.7 °C 30.00in /  1015.8hPa NE 17.2mph /  27.7km/h 17.2mph /  27.7km/h 78% 0.00in /  0mm 0.00 W/m2
03:32 46.8 °F /  8.2 °C 40.0 °F /  4.4 °C 29.99in /  1015.5hPa NE 9.2mph /  14.8km/h 10.3mph /  16.6km/h 77% 0.00in /  0mm 0.00 W/m2
03:33 46.8 °F /  8.2 °C 40.0 °F /  4.4 °C 30.00in /  1015.8hPa NNE 12.6mph /  20.3km/h 13.8mph /  22.2km/h 77% 0.00in /  0mm 0.00 W/m2
03:38 46.7 °F /  8.2 °C 39.9 °F /  4.4 °C 30.00in /  1015.8hPa NE 12.6mph /  20.3km/h 17.2mph /  27.7km/h 77% 0.00in /  0mm 0.00 W/m2
03:43 46.6 °F /  8.1 °C 39.8 °F /  4.3 °C 30.01in /  1016.1hPa ENE 10.3mph /  16.6km/h 14.9mph /  24km/h 77% 0.00in /  0mm 0.00 W/m2
03:48 46.5 °F /  8.1 °C 40.0 °F /  4.4 °C 30.01in /  1016.1hPa North 10.3mph /  16.6km/h 18.4mph /  29.6km/h 78% 0.00in /  0mm 0.00 W/m2
03:53 46.3 °F /  7.9 °C 39.8 °F /  4.3 °C 30.02in /  1016.5hPa NE 9.2mph /  14.8km/h 17.2mph /  27.7km/h 78% 0.00in /  0mm 0.00 W/m2
03:58 46.3 °F /  7.9 °C 39.8 °F /  4.3 °C 30.02in /  1016.5hPa NE 5.8mph /  9.3km/h 10.3mph /  16.6km/h 78% 0.00in /  0mm 0.00 W/m2
04:03 46.2 °F /  7.9 °C 39.7 °F /  4.3 °C 30.02in /  1016.5hPa NNE 8.1mph /  13km/h 10.3mph /  16.6km/h 78% 0.00in /  0mm 0.00 W/m2
04:08 46.2 °F /  7.9 °C 39.7 °F /  4.3 °C 30.03in /  1016.8hPa NNE 5.8mph /  9.3km/h 10.3mph /  16.6km/h 78% 0.00in /  0mm 0.00 W/m2
04:13 46.1 °F /  7.8 °C 39.6 °F /  4.2 °C 30.03in /  1016.8hPa NNE 3.4mph /  5.5km/h 13.8mph /  22.2km/h 78% 0.00in /  0mm 0.00 W/m2
04:19 46.1 °F /  7.8 °C 39.3 °F /  4.1 °C 30.04in /  1017.2hPa NE 10.3mph /  16.6km/h 17.2mph /  27.7km/h 77% 0.00in /  0mm 0.00 W/m2
04:24 46.1 °F /  7.8 °C 39.6 °F /  4.2 °C 30.04in /  1017.2hPa ENE 3.4mph /  5.5km/h 17.2mph /  27.7km/h 78% 0.00in /  0mm 0.00 W/m2
04:29 46.0 °F /  7.8 °C 39.5 °F /  4.2 °C 30.03in /  1016.8hPa NE 6.9mph /  11.1km/h 20.7mph /  33.3km/h 78% 0.00in /  0mm 0.00 W/m2
04:34 46.0 °F /  7.8 °C 39.5 °F /  4.2 °C 30.04in /  1017.2hPa NNE 6.9mph /  11.1km/h 10.3mph /  16.6km/h 78% 0.00in /  0mm 0.00 W/m2
04:39 46.0 °F /  7.8 °C 39.5 °F /  4.2 °C 30.04in /  1017.2hPa ENE 12.6mph /  20.3km/h 14.9mph /  24km/h 78% 0.00in /  0mm 0.00 W/m2
04:44 45.9 °F /  7.7 °C 39.4 °F /  4.1 °C 30.04in /  1017.2hPa NE 4.6mph /  7.4km/h 14.9mph /  24km/h 78% 0.00in /  0mm 0.00 W/m2
04:49 45.9 °F /  7.7 °C 39.4 °F /  4.1 °C 30.03in /  1016.8hPa NE 9.2mph /  14.8km/h 12.6mph /  20.3km/h 78% 0.00in /  0mm 0.00 W/m2
04:54 45.9 °F /  7.7 °C 39.8 °F /  4.3 °C 30.03in /  1016.8hPa NE 8.1mph /  13km/h 12.6mph /  20.3km/h 79% 0.00in /  0mm 0.00 W/m2
04:59 45.9 °F /  7.7 °C 39.4 °F /  4.1 °C 30.04in /  1017.2hPa ENE 2.3mph /  3.7km/h 11.5mph /  18.5km/h 78% 0.00in /  0mm 0.00 W/m2
05:04 45.9 °F /  7.7 °C 39.4 °F /  4.1 °C 30.04in /  1017.2hPa NE 11.5mph /  18.5km/h 14.9mph /  24km/h 78% 0.00in /  0mm 0.00 W/m2
05:09 45.8 °F /  7.7 °C 39.3 °F /  4.1 °C 30.03in /  1016.8hPa North 8.1mph /  13km/h 18.4mph /  29.6km/h 78% 0.00in /  0mm 0.00 W/m2
05:14 45.6 °F /  7.6 °C 39.5 °F /  4.2 °C 30.03in /  1016.8hPa NE 5.8mph /  9.3km/h 13.8mph /  22.2km/h 79% 0.00in /  0mm 0.00 W/m2
05:19 45.5 °F /  7.5 °C 39.4 °F /  4.1 °C 30.03in /  1016.8hPa NE 4.6mph /  7.4km/h 11.5mph /  18.5km/h 79% 0.00in /  0mm 0.00 W/m2
05:24 45.4 °F /  7.4 °C 39.6 °F /  4.2 °C 30.04in /  1017.2hPa NE 3.4mph /  5.5km/h 13.8mph /  22.2km/h 80% 0.00in /  0mm 0.00 W/m2
05:29 45.4 °F /  7.4 °C 39.9 °F /  4.4 °C 30.04in /  1017.2hPa NE 9.2mph /  14.8km/h 12.6mph /  20.3km/h 81% 0.00in /  0mm 0.00 W/m2
05:34 45.3 °F /  7.4 °C 39.5 °F /  4.2 °C 30.04in /  1017.2hPa ENE 10.3mph /  16.6km/h 16.1mph /  25.9km/h 80% 0.00in /  0mm 0.00 W/m2
05:39 45.2 °F /  7.3 °C 39.4 °F /  4.1 °C 30.04in /  1017.2hPa NE 2.3mph /  3.7km/h 16.1mph /  25.9km/h 80% 0.00in /  0mm 0.00 W/m2
05:45 45.2 °F /  7.3 °C 39.7 °F /  4.3 °C 30.04in /  1017.2hPa ENE 9.2mph /  14.8km/h 14.9mph /  24km/h 81% 0.00in /  0mm 5.00 W/m2
05:50 45.3 °F /  7.4 °C 39.8 °F /  4.3 °C 30.04in /  1017.2hPa East 6.9mph /  11.1km/h 11.5mph /  18.5km/h 81% 0.00in /  0mm 7.00 W/m2
05:55 45.3 °F /  7.4 °C 39.8 °F /  4.3 °C 30.05in /  1017.5hPa NE 4.6mph /  7.4km/h 12.6mph /  20.3km/h 81% 0.00in /  0mm 7.00 W/m2
06:00 45.4 °F /  7.4 °C 39.9 °F /  4.4 °C 30.05in /  1017.5hPa ENE 11.5mph /  18.5km/h 11.5mph /  18.5km/h 81% 0.00in /  0mm 9.00 W/m2
06:05 45.4 °F /  7.4 °C 39.9 °F /  4.4 °C 30.04in /  1017.2hPa NE 3.4mph /  5.5km/h 14.9mph /  24km/h 81% 0.00in /  0mm 9.00 W/m2
06:10 45.4 °F /  7.4 °C 40.2 °F /  4.6 °C 30.04in /  1017.2hPa ENE 14.9mph /  24km/h 14.9mph /  24km/h 82% 0.00in /  0mm 11.00 W/m2
06:15 45.3 °F /  7.4 °C 39.8 °F /  4.3 °C 30.04in /  1017.2hPa NE 3.4mph /  5.5km/h 16.1mph /  25.9km/h 81% 0.00in /  0mm 12.00 W/m2
06:20 45.2 °F /  7.3 °C 39.7 °F /  4.3 °C 30.04in /  1017.2hPa NE 11.5mph /  18.5km/h 19.5mph /  31.4km/h 81% 0.00in /  0mm 14.00 W/m2
06:25 45.0 °F /  7.2 °C 39.8 °F /  4.3 °C 30.05in /  1017.5hPa NE 12.6mph /  20.3km/h 16.1mph /  25.9km/h 82% 0.00in /  0mm 14.00 W/m2
06:30 44.9 °F /  7.2 °C 39.8 °F /  4.3 °C 30.05in /  1017.5hPa NNW 4.6mph /  7.4km/h 19.5mph /  31.4km/h 82% 0.00in /  0mm 16.00 W/m2
06:35 44.9 °F /  7.2 °C 40.1 °F /  4.5 °C 30.05in /  1017.5hPa NNE 17.2mph /  27.7km/h 17.2mph /  27.7km/h 83% 0.00in /  0mm 18.00 W/m2
06:40 44.9 °F /  7.2 °C 40.1 °F /  4.5 °C 30.06in /  1017.8hPa ESE 3.4mph /  5.5km/h 14.9mph /  24km/h 83% 0.00in /  0mm 19.00 W/m2
06:45 44.8 °F /  7.1 °C 40.0 °F /  4.4 °C 30.06in /  1017.8hPa ENE 8.1mph /  13km/h 20.7mph /  33.3km/h 83% 0.00in /  0mm 25.00 W/m2
06:50 44.7 °F /  7.1 °C 40.5 °F /  4.7 °C 30.05in /  1017.5hPa East 16.1mph /  25.9km/h 16.1mph /  25.9km/h 85% 0.00in /  0mm 33.00 W/m2
06:55 44.5 °F /  6.9 °C 40.6 °F /  4.8 °C 30.05in /  1017.5hPa ENE 17.2mph /  27.7km/h 17.2mph /  27.7km/h 86% 0.00in /  0mm 37.00 W/m2
07:00 44.4 °F /  6.9 °C 40.5 °F /  4.7 °C 30.03in /  1016.8hPa NNE 14.9mph /  24km/h 18.4mph /  29.6km/h 86% 0.00in /  0mm 39.00 W/m2
07:05 44.4 °F /  6.9 °C 40.8 °F /  4.9 °C 30.04in /  1017.2hPa NE 9.2mph /  14.8km/h 19.5mph /  31.4km/h 87% 0.00in /  0mm 42.00 W/m2
07:15 44.4 °F /  6.9 °C 40.8 °F /  4.9 °C 30.03in /  1016.8hPa ENE 12.6mph /  20.3km/h 16.1mph /  25.9km/h 87% 0.00in /  0mm 63.00 W/m2
07:20 44.5 °F /  6.9 °C 40.9 °F /  4.9 °C 30.03in /  1016.8hPa East 11.5mph /  18.5km/h 19.5mph /  31.4km/h 87% 0.00in /  0mm 93.00 W/m2
07:25 44.8 °F /  7.1 °C 41.5 °F /  5.3 °C 30.03in /  1016.8hPa NE 13.8mph /  22.2km/h 19.5mph /  31.4km/h 88% 0.00in /  0mm 113.00 W/m2
07:30 45.0 °F /  7.2 °C 41.7 °F /  5.4 °C 30.05in /  1017.5hPa NE 4.6mph /  7.4km/h 10.3mph /  16.6km/h 88% 0.00in /  0mm 95.00 W/m2
07:35 45.1 °F /  7.3 °C 41.8 °F /  5.4 °C 30.05in /  1017.5hPa ENE 8.1mph /  13km/h 17.2mph /  27.7km/h 88% 0.00in /  0mm 72.00 W/m2
07:40 45.1 °F /  7.3 °C 41.5 °F /  5.3 °C 30.03in /  1016.8hPa NE 6.9mph /  11.1km/h 13.8mph /  22.2km/h 87% 0.00in /  0mm 102.00 W/m2
07:45 45.3 °F /  7.4 °C 41.7 °F /  5.4 °C 30.05in /  1017.5hPa NE 5.8mph /  9.3km/h 12.6mph /  20.3km/h 87% 0.00in /  0mm 56.00 W/m2
07:50 45.2 °F /  7.3 °C 41.3 °F /  5.2 °C 30.05in /  1017.5hPa ENE 8.1mph /  13km/h 18.4mph /  29.6km/h 86% 0.00in /  0mm 72.00 W/m2
07:55 45.2 °F /  7.3 °C 41.3 °F /  5.2 °C 30.05in /  1017.5hPa NNE 8.1mph /  13km/h 19.5mph /  31.4km/h 86% 0.00in /  0mm 84.00 W/m2
08:01 45.4 °F /  7.4 °C 41.5 °F /  5.3 °C 30.04in /  1017.2hPa East 10.3mph /  16.6km/h 18.4mph /  29.6km/h 86% 0.00in /  0mm 69.00 W/m2
08:06 45.6 °F /  7.6 °C 41.7 °F /  5.4 °C 30.05in /  1017.5hPa NE 5.8mph /  9.3km/h 18.4mph /  29.6km/h 86% 0.00in /  0mm 69.00 W/m2
08:11 45.6 °F /  7.6 °C 41.7 °F /  5.4 °C 30.04in /  1017.2hPa East 10.3mph /  16.6km/h 19.5mph /  31.4km/h 86% 0.00in /  0mm 120.00 W/m2
08:16 45.5 °F /  7.5 °C 41.3 °F /  5.2 °C 30.05in /  1017.5hPa East 9.2mph /  14.8km/h 20.7mph /  33.3km/h 85% 0.00in /  0mm 132.00 W/m2
08:21 45.5 °F /  7.5 °C 41.0 °F /  5 °C 30.05in /  1017.5hPa NE 16.1mph /  25.9km/h 19.5mph /  31.4km/h 84% 0.00in /  0mm 104.00 W/m2
08:22 45.5 °F /  7.5 °C 41.0 °F /  5 °C 30.05in /  1017.5hPa ESE 9.2mph /  14.8km/h 19.5mph /  31.4km/h 84% 0.00in /  0mm 100.00 W/m2
08:27 45.6 °F /  7.6 °C 41.0 °F /  5 °C 30.05in /  1017.5hPa ENE 8.1mph /  13km/h 21.9mph /  35.2km/h 84% 0.00in /  0mm 77.00 W/m2
08:32 45.5 °F /  7.5 °C 41.0 °F /  5 °C 30.05in /  1017.5hPa North 5.8mph /  9.3km/h 14.9mph /  24km/h 84% 0.00in /  0mm 49.00 W/m2
08:37 45.4 °F /  7.4 °C 40.9 °F /  4.9 °C 30.06in /  1017.8hPa NE 8.1mph /  13km/h 12.6mph /  20.3km/h 84% 0.00in /  0mm 44.00 W/m2
08:42 45.4 °F /  7.4 °C 41.2 °F /  5.1 °C 30.06in /  1017.8hPa NNE 9.2mph /  14.8km/h 13.8mph /  22.2km/h 85% 0.00in /  0mm 53.00 W/m2
08:47 45.4 °F /  7.4 °C 40.9 °F /  4.9 °C 30.07in /  1018.2hPa NNE 9.2mph /  14.8km/h 12.6mph /  20.3km/h 84% 0.00in /  0mm 51.00 W/m2
08:52 45.4 °F /  7.4 °C 40.9 °F /  4.9 °C 30.07in /  1018.2hPa NNE 6.9mph /  11.1km/h 8.1mph /  13km/h 84% 0.00in /  0mm 49.00 W/m2
08:55 45.5 °F /  7.5 °C 41.3 °F /  5.2 °C 30.08in /  1018.5hPa North 9.2mph /  14.8km/h 9.2mph /  14.8km/h 85% 0.00in /  0mm 49.00 W/m2
09:00 45.8 °F /  7.7 °C 41.5 °F /  5.3 °C 30.09in /  1018.8hPa North 5.8mph /  9.3km/h 12.6mph /  20.3km/h 85% 0.00in /  0mm 51.00 W/m2
09:05 46.0 °F /  7.8 °C 41.4 °F /  5.2 °C 30.12in /  1019.9hPa NNE 9.2mph /  14.8km/h 9.2mph /  14.8km/h 84% 0.00in /  0mm 28.00 W/m2
09:10 45.9 °F /  7.7 °C 41.3 °F /  5.2 °C 30.13in /  1020.2hPa NW 4.6mph /  7.4km/h 9.2mph /  14.8km/h 84% 0.00in /  0mm 23.00 W/m2
09:15 46.0 °F /  7.8 °C 42.0 °F /  5.6 °C 30.14in /  1020.5hPa NNW 6.9mph /  11.1km/h 10.3mph /  16.6km/h 86% 0.00in /  0mm 33.00 W/m2
09:20 45.8 °F /  7.7 °C 42.2 °F /  5.7 °C 30.13in /  1020.2hPa North 3.4mph /  5.5km/h 11.5mph /  18.5km/h 87% 0.01in /  0.25mm 33.00 W/m2
09:25 45.6 °F /  7.6 °C 42.3 °F /  5.7 °C 30.12in /  1019.9hPa WNW 2.3mph /  3.7km/h 13.8mph /  22.2km/h 88% 0.01in /  0.25mm 37.00 W/m2
09:30 45.4 °F /  7.4 °C 42.3 °F /  5.7 °C 30.10in /  1019.2hPa North 8.1mph /  13km/h 12.6mph /  20.3km/h 89% 0.03in /  0.76mm 39.00 W/m2
09:35 45.1 °F /  7.3 °C 42.1 °F /  5.6 °C 30.12in /  1019.9hPa East 1.1mph /  1.8km/h 11.5mph /  18.5km/h 89% 0.04in /  1.02mm 33.00 W/m2
09:40 45.1 °F /  7.3 °C 42.3 °F /  5.7 °C 30.12in /  1019.9hPa NE 10.3mph /  16.6km/h 10.3mph /  16.6km/h 90% 0.07in /  1.78mm 39.00 W/m2
09:45 44.8 °F /  7.1 °C 42.3 °F /  5.7 °C 30.08in /  1018.5hPa North 9.2mph /  14.8km/h 11.5mph /  18.5km/h 91% 0.09in /  2.29mm 63.00 W/m2
09:50 44.6 °F /  7 °C 42.1 °F /  5.6 °C 30.07in /  1018.2hPa ENE 8.1mph /  13km/h 20.7mph /  33.3km/h 91% 0.11in /  2.79mm 69.00 W/m2
09:55 44.7 °F /  7.1 °C 42.5 °F /  5.8 °C 30.05in /  1017.5hPa NNE 2.3mph /  3.7km/h 17.2mph /  27.7km/h 92% 0.13in /  3.3mm 76.00 W/m2
09:56 44.7 °F /  7.1 °C 42.5 °F /  5.8 °C 30.05in /  1017.5hPa NNE 3.4mph /  5.5km/h 17.2mph /  27.7km/h 92% 0.13in /  3.3mm 76.00 W/m2
10:01 44.6 °F /  7 °C 42.4 °F /  5.8 °C 30.04in /  1017.2hPa NE 8.1mph /  13km/h 26.4mph /  42.5km/h 92% 0.14in /  3.56mm 86.00 W/m2
10:06 44.6 °F /  7 °C 42.4 °F /  5.8 °C 30.01in /  1016.1hPa NE 19.5mph /  31.4km/h 23.0mph /  37km/h 92% 0.14in /  3.56mm 121.00 W/m2
10:11 44.8 °F /  7.1 °C 42.9 °F /  6.1 °C 30.00in /  1015.8hPa NE 10.3mph /  16.6km/h 20.7mph /  33.3km/h 93% 0.14in /  3.56mm 118.00 W/m2
10:16 44.7 °F /  7.1 °C 42.8 °F /  6 °C 30.00in /  1015.8hPa NNE 9.2mph /  14.8km/h 21.9mph /  35.2km/h 93% 0.14in /  3.56mm 134.00 W/m2
10:21 44.9 °F /  7.2 °C 43.0 °F /  6.1 °C 29.98in /  1015.1hPa NNE 21.9mph /  35.2km/h 24.1mph /  38.8km/h 93% 0.14in /  3.56mm 190.00 W/m2
10:26 45.0 °F /  7.2 °C 43.1 °F /  6.2 °C 29.98in /  1015.1hPa ENE 8.1mph /  13km/h 29.9mph /  48.1km/h 93% 0.14in /  3.56mm 237.00 W/m2
10:31 45.4 °F /  7.4 °C 43.5 °F /  6.4 °C 29.99in /  1015.5hPa NE 13.8mph /  22.2km/h 19.5mph /  31.4km/h 93% 0.13in /  3.3mm 220.00 W/m2
10:36 45.7 °F /  7.6 °C 43.8 °F /  6.6 °C 29.98in /  1015.1hPa NE 9.2mph /  14.8km/h 9.2mph /  14.8km/h 93% 0.10in /  2.54mm 186.00 W/m2
10:41 45.4 °F /  7.4 °C 43.5 °F /  6.4 °C 29.97in /  1014.8hPa NNE 6.9mph /  11.1km/h 8.1mph /  13km/h 93% 0.08in /  2.03mm 216.00 W/m2
10:46 45.5 °F /  7.5 °C 43.6 °F /  6.4 °C 29.97in /  1014.8hPa NE 9.2mph /  14.8km/h 18.4mph /  29.6km/h 93% 0.05in /  1.27mm 221.00 W/m2
10:51 45.8 °F /  7.7 °C 43.9 °F /  6.6 °C 29.97in /  1014.8hPa NE 11.5mph /  18.5km/h 17.2mph /  27.7km/h 93% 0.04in /  1.02mm 207.00 W/m2
10:56 45.9 °F /  7.7 °C 44.0 °F /  6.7 °C 29.97in /  1014.8hPa ENE 11.5mph /  18.5km/h 14.9mph /  24km/h 93% 0.02in /  0.51mm 265.00 W/m2
11:01 46.3 °F /  7.9 °C 44.4 °F /  6.9 °C 29.98in /  1015.1hPa NE 26.4mph /  42.5km/h 26.4mph /  42.5km/h 93% 0.01in /  0.25mm 396.00 W/m2
11:06 47.4 °F /  8.6 °C 45.8 °F /  7.7 °C 29.98in /  1015.1hPa NE 12.6mph /  20.3km/h 12.6mph /  20.3km/h 94% 0.01in /  0.25mm 239.00 W/m2
11:11 47.1 °F /  8.4 °C 44.9 °F /  7.2 °C 29.98in /  1015.1hPa NNE 6.9mph /  11.1km/h 8.1mph /  13km/h 92% 0.01in /  0.25mm 137.00 W/m2
11:13 47.1 °F /  8.4 °C 44.9 °F /  7.2 °C 29.98in /  1015.1hPa NE 19.5mph /  31.4km/h 19.5mph /  31.4km/h 92% 0.01in /  0.25mm 132.00 W/m2
11:18 46.6 °F /  8.1 °C 44.4 °F /  6.9 °C 29.97in /  1014.8hPa ENE 16.1mph /  25.9km/h 25.3mph /  40.7km/h 92% 0.01in /  0.25mm 123.00 W/m2
11:23 46.2 °F /  7.9 °C 44.0 °F /  6.7 °C 29.97in /  1014.8hPa NE 9.2mph /  14.8km/h 28.8mph /  46.3km/h 92% 0.00in /  0mm 153.00 W/m2
11:28 46.3 °F /  7.9 °C 44.1 °F /  6.7 °C 29.98in /  1015.1hPa NE 16.1mph /  25.9km/h 28.8mph /  46.3km/h 92% 0.00in /  0mm 207.00 W/m2
11:33 46.4 °F /  8 °C 44.2 °F /  6.8 °C 29.99in /  1015.5hPa NNE 10.3mph /  16.6km/h 17.2mph /  27.7km/h 92% 0.00in /  0mm 209.00 W/m2
11:38 46.9 °F /  8.3 °C 44.7 °F /  7.1 °C 30.00in /  1015.8hPa NNE 4.6mph /  7.4km/h 20.7mph /  33.3km/h 92% 0.00in /  0mm 179.00 W/m2
11:44 46.9 °F /  8.3 °C 44.7 °F /  7.1 °C 30.01in /  1016.1hPa ENE 4.6mph /  7.4km/h 17.2mph /  27.7km/h 92% 0.00in /  0mm 218.00 W/m2
11:49 47.0 °F /  8.3 °C 44.8 °F /  7.1 °C 30.03in /  1016.8hPa NE 10.3mph /  16.6km/h 14.9mph /  24km/h 92% 0.00in /  0mm 199.00 W/m2
11:54 47.1 °F /  8.4 °C 44.9 °F /  7.2 °C 30.03in /  1016.8hPa NE 4.6mph /  7.4km/h 13.8mph /  22.2km/h 92% 0.00in /  0mm 207.00 W/m2
11:59 47.5 °F /  8.6 °C 45.3 °F /  7.4 °C 30.03in /  1016.8hPa NE 12.6mph /  20.3km/h 17.2mph /  27.7km/h 92% 0.00in /  0mm 186.00 W/m2
12:04 47.1 °F /  8.4 °C 44.6 °F /  7 °C 30.03in /  1016.8hPa ENE 10.3mph /  16.6km/h 14.9mph /  24km/h 91% 0.00in /  0mm 155.00 W/m2
12:09 47.2 °F /  8.4 °C 44.7 °F /  7.1 °C 30.03in /  1016.8hPa NE 8.1mph /  13km/h 14.9mph /  24km/h 91% 0.00in /  0mm 262.00 W/m2
12:14 47.7 °F /  8.7 °C 45.5 °F /  7.5 °C 30.02in /  1016.5hPa NE 8.1mph /  13km/h 16.1mph /  25.9km/h 92% 0.00in /  0mm 480.00 W/m2
12:19 49.5 °F /  9.7 °C 47.6 °F /  8.7 °C 30.02in /  1016.5hPa NE 5.8mph /  9.3km/h 13.8mph /  22.2km/h 93% 0.00in /  0mm 519.00 W/m2
12:24 49.6 °F /  9.8 °C 46.8 °F /  8.2 °C 30.02in /  1016.5hPa NE 2.3mph /  3.7km/h 11.5mph /  18.5km/h 90% 0.00in /  0mm 357.00 W/m2
12:29 49.3 °F /  9.6 °C 46.2 °F /  7.9 °C 30.03in /  1016.8hPa NE 18.4mph /  29.6km/h 18.4mph /  29.6km/h 89% 0.00in /  0mm 251.00 W/m2
12:34 48.6 °F /  9.2 °C 45.8 °F /  7.7 °C 30.03in /  1016.8hPa North 11.5mph /  18.5km/h 12.6mph /  20.3km/h 90% 0.00in /  0mm 204.00 W/m2
12:39 48.7 °F /  9.3 °C 46.2 °F /  7.9 °C 30.03in /  1016.8hPa North 4.6mph /  7.4km/h 13.8mph /  22.2km/h 91% 0.00in /  0mm 204.00 W/m2
12:44 48.7 °F /  9.3 °C 45.9 °F /  7.7 °C 30.05in /  1017.5hPa NNW 8.1mph /  13km/h 16.1mph /  25.9km/h 90% 0.00in /  0mm 160.00 W/m2
12:49 48.8 °F /  9.3 °C 46.0 °F /  7.8 °C 30.05in /  1017.5hPa NE 8.1mph /  13km/h 14.9mph /  24km/h 90% 0.00in /  0mm 160.00 W/m2
12:54 48.9 °F /  9.4 °C 46.1 °F /  7.8 °C 30.05in /  1017.5hPa North 6.9mph /  11.1km/h 13.8mph /  22.2km/h 90% 0.00in /  0mm 141.00 W/m2
12:59 48.8 °F /  9.3 °C 46.0 °F /  7.8 °C 30.05in /  1017.5hPa NE 18.4mph /  29.6km/h 18.4mph /  29.6km/h 90% 0.00in /  0mm 134.00 W/m2
13:04 48.7 °F /  9.3 °C 45.9 °F /  7.7 °C 30.04in /  1017.2hPa NNE 10.3mph /  16.6km/h 14.9mph /  24km/h 90% 0.00in /  0mm 174.00 W/m2
13:09 48.9 °F /  9.4 °C 45.8 °F /  7.7 °C 30.03in /  1016.8hPa NNE 11.5mph /  18.5km/h 16.1mph /  25.9km/h 89% 0.00in /  0mm 188.00 W/m2
13:14 49.1 °F /  9.5 °C 46.0 °F /  7.8 °C 30.03in /  1016.8hPa NNE 12.6mph /  20.3km/h 16.1mph /  25.9km/h 89% 0.00in /  0mm 213.00 W/m2
13:19 49.3 °F /  9.6 °C 46.2 °F /  7.9 °C 30.03in /  1016.8hPa NNE 19.5mph /  31.4km/h 19.5mph /  31.4km/h 89% 0.00in /  0mm 204.00 W/m2
13:24 49.6 °F /  9.8 °C 46.5 °F /  8.1 °C 30.03in /  1016.8hPa North 13.8mph /  22.2km/h 16.1mph /  25.9km/h 89% 0.00in /  0mm 195.00 W/m2
13:30 49.5 °F /  9.7 °C 46.1 °F /  7.8 °C 30.03in /  1016.8hPa NNE 6.9mph /  11.1km/h 12.6mph /  20.3km/h 88% 0.00in /  0mm 151.00 W/m2
13:35 49.2 °F /  9.6 °C 45.8 °F /  7.7 °C 30.03in /  1016.8hPa NNE 11.5mph /  18.5km/h 19.5mph /  31.4km/h 88% 0.00in /  0mm 160.00 W/m2
13:40 49.0 °F /  9.4 °C 45.9 °F /  7.7 °C 30.03in /  1016.8hPa NE 9.2mph /  14.8km/h 17.2mph /  27.7km/h 89% 0.00in /  0mm 146.00 W/m2
13:45 49.0 °F /  9.4 °C 45.9 °F /  7.7 °C 30.03in /  1016.8hPa NNE 5.8mph /  9.3km/h 18.4mph /  29.6km/h 89% 0.00in /  0mm 79.00 W/m2
13:50 48.7 °F /  9.3 °C 45.6 °F /  7.6 °C 30.04in /  1017.2hPa NNE 12.6mph /  20.3km/h 16.1mph /  25.9km/h 89% 0.00in /  0mm 83.00 W/m2
13:55 48.7 °F /  9.3 °C 45.6 °F /  7.6 °C 30.04in /  1017.2hPa NE 8.1mph /  13km/h 14.9mph /  24km/h 89% 0.00in /  0mm 98.00 W/m2
14:00 48.5 °F /  9.2 °C 45.4 °F /  7.4 °C 30.04in /  1017.2hPa NE 3.4mph /  5.5km/h 11.5mph /  18.5km/h 89% 0.00in /  0mm 105.00 W/m2
14:05 48.5 °F /  9.2 °C 45.7 °F /  7.6 °C 30.06in /  1017.8hPa NNE 3.4mph /  5.5km/h 11.5mph /  18.5km/h 90% 0.00in /  0mm 39.00 W/m2
14:10 48.3 °F /  9.1 °C 45.5 °F /  7.5 °C 30.07in /  1018.2hPa NE 6.9mph /  11.1km/h 9.2mph /  14.8km/h 90% 0.00in /  0mm 42.00 W/m2
14:15 48.2 °F /  9 °C 45.4 °F /  7.4 °C 30.07in /  1018.2hPa North 4.6mph /  7.4km/h 13.8mph /  22.2km/h 90% 0.02in /  0.51mm 76.00 W/m2
14:20 48.1 °F /  8.9 °C 45.9 °F /  7.7 °C 30.06in /  1017.8hPa NNE 3.4mph /  5.5km/h 10.3mph /  16.6km/h 92% 0.03in /  0.76mm 74.00 W/m2
14:25 48.1 °F /  8.9 °C 45.9 °F /  7.7 °C 30.06in /  1017.8hPa NNE 3.4mph /  5.5km/h 10.3mph /  16.6km/h 92% 0.04in /  1.02mm 98.00 W/m2
14:30 48.0 °F /  8.9 °C 45.8 °F /  7.7 °C 30.06in /  1017.8hPa NNE 8.1mph /  13km/h 11.5mph /  18.5km/h 92% 0.04in /  1.02mm 116.00 W/m2
14:35 47.9 °F /  8.8 °C 45.7 °F /  7.6 °C 30.06in /  1017.8hPa NE 6.9mph /  11.1km/h 11.5mph /  18.5km/h 92% 0.04in /  1.02mm 118.00 W/m2
14:40 48.1 °F /  8.9 °C 46.2 °F /  7.9 °C 30.06in /  1017.8hPa NE 4.6mph /  7.4km/h 10.3mph /  16.6km/h 93% 0.04in /  1.02mm 120.00 W/m2
14:45 48.3 °F /  9.1 °C 46.4 °F /  8 °C 30.06in /  1017.8hPa NNE 4.6mph /  7.4km/h 12.6mph /  20.3km/h 93% 0.04in /  1.02mm 148.00 W/m2
14:50 48.3 °F /  9.1 °C 46.4 °F /  8 °C 30.06in /  1017.8hPa NNE 6.9mph /  11.1km/h 12.6mph /  20.3km/h 93% 0.04in /  1.02mm 144.00 W/m2
14:55 48.4 °F /  9.1 °C 46.5 °F /  8.1 °C 30.06in /  1017.8hPa NNE 4.6mph /  7.4km/h 11.5mph /  18.5km/h 93% 0.04in /  1.02mm 141.00 W/m2
15:00 48.3 °F /  9.1 °C 46.4 °F /  8 °C 30.06in /  1017.8hPa NE 3.4mph /  5.5km/h 17.2mph /  27.7km/h 93% 0.04in /  1.02mm 118.00 W/m2
15:06 48.1 °F /  8.9 °C 46.2 °F /  7.9 °C 30.06in /  1017.8hPa NE 9.2mph /  14.8km/h 19.5mph /  31.4km/h 93% 0.04in /  1.02mm 128.00 W/m2
15:11 47.9 °F /  8.8 °C 46.0 °F /  7.8 °C 30.06in /  1017.8hPa NE 10.3mph /  16.6km/h 18.4mph /  29.6km/h 93% 0.04in /  1.02mm 130.00 W/m2
15:16 48.1 °F /  8.9 °C 46.2 °F /  7.9 °C 30.06in /  1017.8hPa NNE 1.1mph /  1.8km/h 17.2mph /  27.7km/h 93% 0.04in /  1.02mm 116.00 W/m2
15:21 48.1 °F /  8.9 °C 46.2 °F /  7.9 °C 30.06in /  1017.8hPa ENE 8.1mph /  13km/h 14.9mph /  24km/h 93% 0.01in /  0.25mm 121.00 W/m2
15:26 47.8 °F /  8.8 °C 45.9 °F /  7.7 °C 30.06in /  1017.8hPa North 5.8mph /  9.3km/h 16.1mph /  25.9km/h 93% 0.01in /  0.25mm 105.00 W/m2
15:31 47.8 °F /  8.8 °C 45.9 °F /  7.7 °C 30.06in /  1017.8hPa NNE 12.6mph /  20.3km/h 18.4mph /  29.6km/h 93% 0.00in /  0mm 109.00 W/m2
15:36 47.6 °F /  8.7 °C 45.7 °F /  7.6 °C 30.05in /  1017.5hPa ENE 9.2mph /  14.8km/h 17.2mph /  27.7km/h 93% 0.00in /  0mm 113.00 W/m2
15:41 47.6 °F /  8.7 °C 45.7 °F /  7.6 °C 30.05in /  1017.5hPa NE 6.9mph /  11.1km/h 18.4mph /  29.6km/h 93% 0.00in /  0mm 113.00 W/m2
15:46 47.6 °F /  8.7 °C 45.7 °F /  7.6 °C 30.05in /  1017.5hPa NE 3.4mph /  5.5km/h 20.7mph /  33.3km/h 93% 0.00in /  0mm 127.00 W/m2
15:51 47.6 °F /  8.7 °C 45.7 °F /  7.6 °C 30.05in /  1017.5hPa NNE 14.9mph /  24km/h 16.1mph /  25.9km/h 93% 0.00in /  0mm 134.00 W/m2
15:56 47.6 °F /  8.7 °C 45.7 °F /  7.6 °C 30.06in /  1017.8hPa NNE 8.1mph /  13km/h 20.7mph /  33.3km/h 93% 0.00in /  0mm 102.00 W/m2
16:01 47.4 °F /  8.6 °C 45.2 °F /  7.3 °C 30.06in /  1017.8hPa SE 5.8mph /  9.3km/h 10.3mph /  16.6km/h 92% 0.00in /  0mm 83.00 W/m2
16:02 47.4 °F /  8.6 °C 45.2 °F /  7.3 °C 30.06in /  1017.8hPa North 10.3mph /  16.6km/h 12.6mph /  20.3km/h 92% 0.00in /  0mm 79.00 W/m2
16:12 47.3 °F /  8.5 °C 45.4 °F /  7.4 °C 30.06in /  1017.8hPa NE 3.4mph /  5.5km/h 16.1mph /  25.9km/h 93% 0.00in /  0mm 77.00 W/m2
16:17 47.2 °F /  8.4 °C 45.3 °F /  7.4 °C 30.07in /  1018.2hPa North 12.6mph /  20.3km/h 14.9mph /  24km/h 93% 0.00in /  0mm 84.00 W/m2
16:22 47.4 °F /  8.6 °C 45.5 °F /  7.5 °C 30.08in /  1018.5hPa NNE 3.4mph /  5.5km/h 8.1mph /  13km/h 93% 0.00in /  0mm 67.00 W/m2
16:27 47.4 °F /  8.6 °C 45.5 °F /  7.5 °C 30.08in /  1018.5hPa North 8.1mph /  13km/h 9.2mph /  14.8km/h 93% 0.00in /  0mm 72.00 W/m2
16:32 47.4 °F /  8.6 °C 45.5 °F /  7.5 °C 30.08in /  1018.5hPa NE 3.4mph /  5.5km/h 9.2mph /  14.8km/h 93% 0.00in /  0mm 70.00 W/m2
16:37 47.3 °F /  8.5 °C 45.4 °F /  7.4 °C 30.08in /  1018.5hPa NNE 8.1mph /  13km/h 18.4mph /  29.6km/h 93% 0.00in /  0mm 83.00 W/m2
16:42 47.2 °F /  8.4 °C 45.3 °F /  7.4 °C 30.08in /  1018.5hPa NE 5.8mph /  9.3km/h 21.9mph /  35.2km/h 93% 0.00in /  0mm 69.00 W/m2
16:47 47.2 °F /  8.4 °C 45.3 °F /  7.4 °C 30.09in /  1018.8hPa NE 6.9mph /  11.1km/h 17.2mph /  27.7km/h 93% 0.00in /  0mm 65.00 W/m2
16:52 47.1 °F /  8.4 °C 45.2 °F /  7.3 °C 30.09in /  1018.8hPa NE 9.2mph /  14.8km/h 12.6mph /  20.3km/h 93% 0.00in /  0mm 58.00 W/m2
16:57 47.2 °F /  8.4 °C 45.3 °F /  7.4 °C 30.10in /  1019.2hPa NE 4.6mph /  7.4km/h 11.5mph /  18.5km/h 93% 0.00in /  0mm 54.00 W/m2
17:02 47.3 °F /  8.5 °C 45.4 °F /  7.4 °C 30.10in /  1019.2hPa North 12.6mph /  20.3km/h 17.2mph /  27.7km/h 93% 0.00in /  0mm 65.00 W/m2
17:07 47.2 °F /  8.4 °C 45.6 °F /  7.6 °C 30.10in /  1019.2hPa North 2.3mph /  3.7km/h 10.3mph /  16.6km/h 94% 0.00in /  0mm 67.00 W/m2
17:12 47.3 °F /  8.5 °C 45.7 °F /  7.6 °C 30.10in /  1019.2hPa NNE 10.3mph /  16.6km/h 16.1mph /  25.9km/h 94% 0.00in /  0mm 74.00 W/m2
17:18 47.3 °F /  8.5 °C 45.7 °F /  7.6 °C 30.10in /  1019.2hPa NNW 11.5mph /  18.5km/h 13.8mph /  22.2km/h 94% 0.00in /  0mm 74.00 W/m2
17:23 47.3 °F /  8.5 °C 45.7 °F /  7.6 °C 30.10in /  1019.2hPa NE 5.8mph /  9.3km/h 14.9mph /  24km/h 94% 0.00in /  0mm 81.00 W/m2
17:28 47.3 °F /  8.5 °C 45.7 °F /  7.6 °C 30.11in /  1019.5hPa NE 4.6mph /  7.4km/h 11.5mph /  18.5km/h 94% 0.00in /  0mm 81.00 W/m2
17:31 47.4 °F /  8.6 °C 45.8 °F /  7.7 °C 30.11in /  1019.5hPa North 8.1mph /  13km/h 18.4mph /  29.6km/h 94% 0.00in /  0mm 77.00 W/m2
17:36 47.6 °F /  8.7 °C 46.0 °F /  7.8 °C 30.11in /  1019.5hPa NE 8.1mph /  13km/h 17.2mph /  27.7km/h 94% 0.00in /  0mm 86.00 W/m2
17:41 47.6 °F /  8.7 °C 46.0 °F /  7.8 °C 30.10in /  1019.2hPa NNE 6.9mph /  11.1km/h 14.9mph /  24km/h 94% 0.00in /  0mm 127.00 W/m2
17:46 47.8 °F /  8.8 °C 46.2 °F /  7.9 °C 30.10in /  1019.2hPa NNE 11.5mph /  18.5km/h 12.6mph /  20.3km/h 94% 0.00in /  0mm 107.00 W/m2
17:56 47.9 °F /  8.8 °C 46.3 °F /  7.9 °C 30.10in /  1019.2hPa North 2.3mph /  3.7km/h 13.8mph /  22.2km/h 94% 0.00in /  0mm 63.00 W/m2
18:01 47.9 °F /  8.8 °C 46.3 °F /  7.9 °C 30.11in /  1019.5hPa NE 11.5mph /  18.5km/h 19.5mph /  31.4km/h 94% 0.00in /  0mm 60.00 W/m2
18:06 47.9 °F /  8.8 °C 46.3 °F /  7.9 °C 30.11in /  1019.5hPa North 4.6mph /  7.4km/h 17.2mph /  27.7km/h 94% 0.00in /  0mm 53.00 W/m2
18:11 47.9 °F /  8.8 °C 46.3 °F /  7.9 °C 30.10in /  1019.2hPa NNE 3.4mph /  5.5km/h 13.8mph /  22.2km/h 94% 0.00in /  0mm 47.00 W/m2
18:16 48.0 °F /  8.9 °C 46.4 °F /  8 °C 30.10in /  1019.2hPa NE 6.9mph /  11.1km/h 17.2mph /  27.7km/h 94% 0.00in /  0mm 56.00 W/m2
18:21 47.9 °F /  8.8 °C 46.3 °F /  7.9 °C 30.10in /  1019.2hPa NNW 14.9mph /  24km/h 19.5mph /  31.4km/h 94% 0.00in /  0mm 69.00 W/m2
18:26 47.9 °F /  8.8 °C 46.3 °F /  7.9 °C 30.10in /  1019.2hPa NNE 6.9mph /  11.1km/h 6.9mph /  11.1km/h 94% 0.00in /  0mm 58.00 W/m2
18:31 48.0 °F /  8.9 °C 46.4 °F /  8 °C 30.10in /  1019.2hPa NNE 3.4mph /  5.5km/h 3.4mph /  5.5km/h 94% 0.00in /  0mm 74.00 W/m2
18:36 48.1 °F /  8.9 °C 46.5 °F /  8.1 °C 30.10in /  1019.2hPa NNE 12.6mph /  20.3km/h 14.9mph /  24km/h 94% 0.00in /  0mm 62.00 W/m2
18:41 48.1 °F /  8.9 °C 46.5 °F /  8.1 °C 30.10in /  1019.2hPa NE 8.1mph /  13km/h 16.1mph /  25.9km/h 94% 0.00in /  0mm 60.00 W/m2
18:46 48.2 °F /  9 °C 46.6 °F /  8.1 °C 30.10in /  1019.2hPa ENE 4.6mph /  7.4km/h 11.5mph /  18.5km/h 94% 0.00in /  0mm 49.00 W/m2
18:51 48.1 °F /  8.9 °C 46.2 °F /  7.9 °C 30.10in /  1019.2hPa NE 5.8mph /  9.3km/h 13.8mph /  22.2km/h 93% 0.00in /  0mm 44.00 W/m2
18:57 48.1 °F /  8.9 °C 46.2 °F /  7.9 °C 30.10in /  1019.2hPa NE 4.6mph /  7.4km/h 9.2mph /  14.8km/h 93% 0.00in /  0mm 39.00 W/m2
19:02 48.1 °F /  8.9 °C 46.5 °F /  8.1 °C 30.10in /  1019.2hPa NNW 3.4mph /  5.5km/h 11.5mph /  18.5km/h 94% 0.00in /  0mm 26.00 W/m2
19:07 48.1 °F /  8.9 °C 46.2 °F /  7.9 °C 30.11in /  1019.5hPa NE 8.1mph /  13km/h 8.1mph /  13km/h 93% 0.00in /  0mm 28.00 W/m2
19:12 48.2 °F /  9 °C 46.6 °F /  8.1 °C 30.11in /  1019.5hPa North 9.2mph /  14.8km/h 9.2mph /  14.8km/h 94% 0.00in /  0mm 28.00 W/m2
19:17 48.1 °F /  8.9 °C 46.5 °F /  8.1 °C 30.11in /  1019.5hPa NE 6.9mph /  11.1km/h 13.8mph /  22.2km/h 94% 0.00in /  0mm 25.00 W/m2
19:22 48.2 °F /  9 °C 46.6 °F /  8.1 °C 30.11in /  1019.5hPa NE 8.1mph /  13km/h 14.9mph /  24km/h 94% 0.00in /  0mm 23.00 W/m2
19:27 48.2 °F /  9 °C 46.6 °F /  8.1 °C 30.11in /  1019.5hPa North 3.4mph /  5.5km/h 12.6mph /  20.3km/h 94% 0.00in /  0mm 21.00 W/m2
19:32 48.2 °F /  9 °C 46.6 °F /  8.1 °C 30.12in /  1019.9hPa NE 5.8mph /  9.3km/h 13.8mph /  22.2km/h 94% 0.00in /  0mm 16.00 W/m2
19:37 48.2 °F /  9 °C 46.3 °F /  7.9 °C 30.12in /  1019.9hPa NE 11.5mph /  18.5km/h 17.2mph /  27.7km/h 93% 0.00in /  0mm 14.00 W/m2
19:42 48.2 °F /  9 °C 46.6 °F /  8.1 °C 30.12in /  1019.9hPa NE 8.1mph /  13km/h 9.2mph /  14.8km/h 94% 0.00in /  0mm 11.00 W/m2
19:47 48.1 °F /  8.9 °C 46.2 °F /  7.9 °C 30.12in /  1019.9hPa North 2.3mph /  3.7km/h 12.6mph /  20.3km/h 93% 0.00in /  0mm 9.00 W/m2
19:52 48.1 °F /  8.9 °C 46.5 °F /  8.1 °C 30.12in /  1019.9hPa NE 4.6mph /  7.4km/h 9.2mph /  14.8km/h 94% 0.00in /  0mm 5.00 W/m2
19:54 48.0 °F /  8.9 °C 46.1 °F /  7.8 °C 30.12in /  1019.9hPa NE 10.3mph /  16.6km/h 14.9mph /  24km/h 93% 0.00in /  0mm 5.00 W/m2
19:59 48.0 °F /  8.9 °C 46.4 °F /  8 °C 30.12in /  1019.9hPa NNE 10.3mph /  16.6km/h 17.2mph /  27.7km/h 94% 0.00in /  0mm 0.00 W/m2
20:04 47.9 °F /  8.8 °C 46.3 °F /  7.9 °C 30.12in /  1019.9hPa NE 9.2mph /  14.8km/h 11.5mph /  18.5km/h 94% 0.00in /  0mm 0.00 W/m2
20:09 47.9 °F /  8.8 °C 46.3 °F /  7.9 °C 30.12in /  1019.9hPa ENE 4.6mph /  7.4km/h 11.5mph /  18.5km/h 94% 0.00in /  0mm 0.00 W/m2
20:14 48.0 °F /  8.9 °C 46.4 °F /  8 °C 30.12in /  1019.9hPa North 4.6mph /  7.4km/h 9.2mph /  14.8km/h 94% 0.00in /  0mm 0.00 W/m2
20:19 48.0 °F /  8.9 °C 46.4 °F /  8 °C 30.12in /  1019.9hPa North 9.2mph /  14.8km/h 12.6mph /  20.3km/h 94% 0.00in /  0mm 0.00 W/m2
20:24 48.0 °F /  8.9 °C 46.4 °F /  8 °C 30.12in /  1019.9hPa NE 12.6mph /  20.3km/h 16.1mph /  25.9km/h 94% 0.00in /  0mm 0.00 W/m2
20:29 48.1 °F /  8.9 °C 46.5 °F /  8.1 °C 30.12in /  1019.9hPa ENE 5.8mph /  9.3km/h 14.9mph /  24km/h 94% 0.00in /  0mm 0.00 W/m2
20:34 48.1 °F /  8.9 °C 46.5 °F /  8.1 °C 30.12in /  1019.9hPa NE 3.4mph /  5.5km/h 12.6mph /  20.3km/h 94% 0.00in /  0mm 0.00 W/m2
20:39 48.2 °F /  9 °C 46.6 °F /  8.1 °C 30.12in /  1019.9hPa NE 11.5mph /  18.5km/h 12.6mph /  20.3km/h 94% 0.00in /  0mm 0.00 W/m2
20:44 48.3 °F /  9.1 °C 46.7 °F /  8.2 °C 30.13in /  1020.2hPa NE 3.4mph /  5.5km/h 18.4mph /  29.6km/h 94% 0.00in /  0mm 0.00 W/m2
20:49 48.4 °F /  9.1 °C 46.8 °F /  8.2 °C 30.13in /  1020.2hPa ENE 1.1mph /  1.8km/h 16.1mph /  25.9km/h 94% 0.00in /  0mm 0.00 W/m2
20:54 48.4 °F /  9.1 °C 46.8 °F /  8.2 °C 30.14in /  1020.5hPa NE 5.8mph /  9.3km/h 12.6mph /  20.3km/h 94% 0.00in /  0mm 0.00 W/m2
20:59 48.5 °F /  9.2 °C 46.9 °F /  8.3 °C 30.14in /  1020.5hPa NNE 8.1mph /  13km/h 16.1mph /  25.9km/h 94% 0.00in /  0mm 0.00 W/m2
21:00 48.5 °F /  9.2 °C 46.9 °F /  8.3 °C 30.14in /  1020.5hPa NE 10.3mph /  16.6km/h 16.1mph /  25.9km/h 94% 0.00in /  0mm 0.00 W/m2
21:05 48.6 °F /  9.2 °C 47.0 °F /  8.3 °C 30.14in /  1020.5hPa North 11.5mph /  18.5km/h 11.5mph /  18.5km/h 94% 0.00in /  0mm 0.00 W/m2
21:10 48.6 °F /  9.2 °C 47.0 °F /  8.3 °C 30.14in /  1020.5hPa NNE 3.4mph /  5.5km/h 11.5mph /  18.5km/h 94% 0.00in /  0mm 0.00 W/m2
21:15 48.7 °F /  9.3 °C 47.0 °F /  8.3 °C 30.14in /  1020.5hPa NE 6.9mph /  11.1km/h 12.6mph /  20.3km/h 94% 0.00in /  0mm 0.00 W/m2
21:21 48.8 °F /  9.3 °C 47.2 °F /  8.4 °C 30.15in /  1020.9hPa NE 5.8mph /  9.3km/h 14.9mph /  24km/h 94% 0.00in /  0mm 0.00 W/m2
21:26 48.9 °F /  9.4 °C 47.2 °F /  8.4 °C 30.14in /  1020.5hPa NE 9.2mph /  14.8km/h 13.8mph /  22.2km/h 94% 0.00in /  0mm 0.00 W/m2
21:31 48.9 °F /  9.4 °C 47.2 °F /  8.4 °C 30.13in /  1020.2hPa ENE 5.8mph /  9.3km/h 5.8mph /  9.3km/h 94% 0.00in /  0mm 0.00 W/m2
21:36 49.0 °F /  9.4 °C 47.3 °F /  8.5 °C 30.13in /  1020.2hPa NE 6.9mph /  11.1km/h 17.2mph /  27.7km/h 94% 0.00in /  0mm 0.00 W/m2
21:46 49.1 °F /  9.5 °C 47.5 °F /  8.6 °C 30.13in /  1020.2hPa ENE 3.4mph /  5.5km/h 6.9mph /  11.1km/h 94% 0.00in /  0mm 0.00 W/m2
21:51 49.1 °F /  9.5 °C 47.5 °F /  8.6 °C 30.13in /  1020.2hPa NE 4.6mph /  7.4km/h 4.6mph /  7.4km/h 94% 0.00in /  0mm 0.00 W/m2
21:56 49.2 °F /  9.6 °C 47.5 °F /  8.6 °C 30.13in /  1020.2hPa NE 2.3mph /  3.7km/h 6.9mph /  11.1km/h 94% 0.00in /  0mm 0.00 W/m2
22:01 49.3 °F /  9.6 °C 47.9 °F /  8.8 °C 30.13in /  1020.2hPa NE 10.3mph /  16.6km/h 10.3mph /  16.6km/h 95% 0.00in /  0mm 0.00 W/m2
22:06 49.4 °F /  9.7 °C 48.0 °F /  8.9 °C 30.14in /  1020.5hPa NE 4.6mph /  7.4km/h 4.6mph /  7.4km/h 95% 0.00in /  0mm 0.00 W/m2
22:12 49.6 °F /  9.8 °C 48.2 °F /  9 °C 30.14in /  1020.5hPa ENE 3.4mph /  5.5km/h 6.9mph /  11.1km/h 95% 0.00in /  0mm 0.00 W/m2
22:13 49.6 °F /  9.8 °C 48.2 °F /  9 °C 30.14in /  1020.5hPa ENE 3.4mph /  5.5km/h 9.2mph /  14.8km/h 95% 0.00in /  0mm 0.00 W/m2
22:18 49.7 °F /  9.8 °C 48.3 °F /  9.1 °C 30.14in /  1020.5hPa NNE 8.1mph /  13km/h 8.1mph /  13km/h 95% 0.00in /  0mm 0.00 W/m2
22:23 49.7 °F /  9.8 °C 48.3 °F /  9.1 °C 30.15in /  1020.9hPa NE 3.4mph /  5.5km/h 6.9mph /  11.1km/h 95% 0.00in /  0mm 0.00 W/m2
22:28 49.9 °F /  9.9 °C 48.5 °F /  9.2 °C 30.14in /  1020.5hPa NE 6.9mph /  11.1km/h 9.2mph /  14.8km/h 95% 0.00in /  0mm 0.00 W/m2
22:33 50.0 °F /  10 °C 48.6 °F /  9.2 °C 30.14in /  1020.5hPa NNE 2.3mph /  3.7km/h 9.2mph /  14.8km/h 95% 0.00in /  0mm 0.00 W/m2
22:38 50.1 °F /  10.1 °C 48.7 °F /  9.3 °C 30.14in /  1020.5hPa ENE 11.5mph /  18.5km/h 11.5mph /  18.5km/h 95% 0.00in /  0mm 0.00 W/m2
22:39 50.1 °F /  10.1 °C 48.7 °F /  9.3 °C 30.14in /  1020.5hPa ENE 8.1mph /  13km/h 11.5mph /  18.5km/h 95% 0.00in /  0mm 0.00 W/m2
22:44 50.2 °F /  10.1 °C 48.8 °F /  9.3 °C 30.13in /  1020.2hPa NE 6.9mph /  11.1km/h 10.3mph /  16.6km/h 95% 0.00in /  0mm 0.00 W/m2
22:49 50.2 °F /  10.1 °C 48.5 °F /  9.2 °C 30.14in /  1020.5hPa ENE 2.3mph /  3.7km/h 9.2mph /  14.8km/h 94% 0.00in /  0mm 0.00 W/m2
22:54 50.3 °F /  10.2 °C 48.6 °F /  9.2 °C 30.13in /  1020.2hPa NNE 4.6mph /  7.4km/h 9.2mph /  14.8km/h 94% 0.00in /  0mm 0.00 W/m2
22:59 50.4 °F /  10.2 °C 48.7 °F /  9.3 °C 30.13in /  1020.2hPa NE 10.3mph /  16.6km/h 10.3mph /  16.6km/h 94% 0.00in /  0mm 0.00 W/m2
23:04 50.5 °F /  10.3 °C 48.8 °F /  9.3 °C 30.13in /  1020.2hPa NE 6.9mph /  11.1km/h 10.3mph /  16.6km/h 94% 0.00in /  0mm 0.00 W/m2
23:09 50.6 °F /  10.3 °C 48.9 °F /  9.4 °C 30.14in /  1020.5hPa ENE 2.3mph /  3.7km/h 9.2mph /  14.8km/h 94% 0.00in /  0mm 0.00 W/m2
23:14 50.6 °F /  10.3 °C 48.9 °F /  9.4 °C 30.14in /  1020.5hPa Calm   11.5mph /  18.5km/h 94% 0.00in /  0mm 0.00 W/m2
23:19 50.7 °F /  10.4 °C 49.0 °F /  9.4 °C 30.15in /  1020.9hPa NE 4.6mph /  7.4km/h 11.5mph /  18.5km/h 94% 0.00in /  0mm 0.00 W/m2
23:24 50.7 °F /  10.4 °C 49.0 °F /  9.4 °C 30.15in /  1020.9hPa North 4.6mph /  7.4km/h 9.2mph /  14.8km/h 94% 0.00in /  0mm 0.00 W/m2
23:25 50.7 °F /  10.4 °C 49.0 °F /  9.4 °C 30.15in /  1020.9hPa ENE 1.1mph /  1.8km/h 9.2mph /  14.8km/h 94% 0.00in /  0mm 0.00 W/m2
23:30 50.8 °F /  10.4 °C 49.1 °F /  9.5 °C 30.15in /  1020.9hPa NE 2.3mph /  3.7km/h 11.5mph /  18.5km/h 94% 0.00in /  0mm 0.00 W/m2
23:36 50.8 °F /  10.4 °C 49.1 °F /  9.5 °C 30.14in /  1020.5hPa ENE 8.1mph /  13km/h 8.1mph /  13km/h 94% 0.00in /  0mm 0.00 W/m2
23:41 50.8 °F /  10.4 °C 48.8 °F /  9.3 °C 30.14in /  1020.5hPa ENE 4.6mph /  7.4km/h 12.6mph /  20.3km/h 93% 0.00in /  0mm 0.00 W/m2
23:46 50.8 °F /  10.4 °C 48.8 °F /  9.3 °C 30.14in /  1020.5hPa NNE 5.8mph /  9.3km/h 10.3mph /  16.6km/h 93% 0.00in /  0mm 0.00 W/m2
23:51 50.8 °F /  10.4 °C 48.8 °F /  9.3 °C 30.13in /  1020.2hPa ENE 5.8mph /  9.3km/h 10.3mph /  16.6km/h 93% 0.00in /  0mm 0.00 W/m2
23:56 50.8 °F /  10.4 °C 48.8 °F /  9.3 °C 30.13in /  1020.2hPa NE 4.6mph /  7.4km/h 10.3mph /  16.6km/h 93% 0.00in /  0mm 0.00 W/m2
peotoneweather.com
Compliments of Weather Underground - 1.75 mb